CEJ3 weather

Stettler Airport
Stettler, Alberta, Canada

Public forecast

Using degrees Celsius for public forecast. Weather courtesy of forecast.io.

Closest aviation weather report (METAR) to Stettler Airport

Closest report is Red Deer Regional Airport, 42.6 nm (78.9 km) W. Retrieved 2020/04/09 22:00 UTC (34 minutes ago):

CYQF 092200Z CCA 14006KT 15SM FEW090 BKN230 05/M01 A2988 RMK AC2CI4 SLP158

Closest aviation forecast (TAF) to Stettler Airport

Closest forecast is Red Deer Regional Airport, 42.6 nm (78.9 km) W. Retrieved 2020/04/09 18:51 UTC (4 hours ago):

TAF CYQF 091747Z 0918/1006 16008KT P6SM FEW080 SCT120 BKN240 TEMPO 0918/1005 BKN080 BKN120 OVC240 BECMG 1003/1005 36010KT FM100500 36010KT P6SM OVC060 TEMPO 1005/1006 P6SM -RA SCT020 OVC040 RMK NXT FCST BY 100000Z